Time;durP1;ratioP1;P1;durP2;ratioP2;P2;SDS_P1;SDS_P2;PMS_P1;PMS_P2;Temp;Humidity;BMP_temperature;BMP_pressure;BME280_temperature;BME280_humidity;BME280_pressure;Samples;Min_cycle;Max_cycle;Signal;HPM_P1;HPM_P2
2022/05/06 00:00:26;;;;;;;;;;;;;;;;;;2206998;59;1330;-72
2022/05/06 00:02:59;;;;;;;;;;;;;;;;;;2206361;59;1552;-72
2022/05/06 00:05:33;;;;;;;;;;;;;;;;;;2206728;59;2109;-73
2022/05/06 00:08:06;;;;;;;;;;;;;;;;;;2203656;59;2137;-73
2022/05/06 00:10:39;;;;;;;;;;;;;;;;;;2206290;59;1835;-72
2022/05/06 00:13:15;;;;;;;;;;;;;;;;;;2206337;59;1649;-73
2022/05/06 00:15:48;;;;;;;;;;;;;;;;;;2205826;59;1597;-72
2022/05/06 00:18:22;;;;;;;;;;;;;;;;;;2206840;59;1161;-73
2022/05/06 00:20:55;;;;;;;;;;;;;;;;;;2206710;59;1621;-73
2022/05/06 00:23:28;;;;;;;;;;;;;;;;;;2206205;59;1719;-73
2022/05/06 00:26:03;;;;;;;;;;;;;;;;;;2205944;59;1957;-73
2022/05/06 00:28:39;;;;;;;;;;;;;;;;;;2206667;67;1282;-73
2022/05/06 00:31:12;;;;;;;;;;;;;;;;;;2206782;59;1690;-73
2022/05/06 00:33:47;;;;;;;;;;;;;;;;;;2206413;59;1726;-73
2022/05/06 00:36:20;;;;;;;;;;;;;;;;;;2206250;59;1704;-73
2022/05/06 00:38:54;;;;;;;;;;;;;;;;;;2206418;59;2050;-73
2022/05/06 00:41:27;;;;;;;;;;;;;;;;;;2207451;67;1183;-73
2022/05/06 00:44:03;;;;;;;;;;;;;;;;;;2207204;59;1953;-73
2022/05/06 00:46:38;;;;;;;;;;;;;;;;;;2205677;59;1694;-72
2022/05/06 00:49:12;;;;;;;;;;;;;;;;;;2207281;59;1526;-72
2022/05/06 00:51:45;;;;;;;;;;;;;;;;;;2206584;59;1196;-72
2022/05/06 00:54:21;;;;;;;;;;;;;;;;;;2207258;59;1594;-72
2022/05/06 00:56:55;;;;;;;;;;;;;;;;;;2207390;59;1748;-72
2022/05/06 00:59:31;;;;;;;;;;;;;;;;;;2207007;59;1612;-73
2022/05/06 01:02:04;;;;;;;;;;;;;;;;;;2207537;59;1716;-73
2022/05/06 01:04:37;;;;;;;;;;;;;;;;;;2206404;59;1973;-72
2022/05/06 01:07:10;;;;;;;;;;;;;;;;;;2206543;59;1661;-72
2022/05/06 01:09:44;;;;;;;;;;;;;;;;;;2207274;59;1316;-72
2022/05/06 01:12:17;;;;;;;;;;;;;;;;;;2207354;59;1280;-72
2022/05/06 01:14:53;;;;;;;;;;;;;;;;;;2206931;59;2405;-73
2022/05/06 01:17:26;;;;;;;;;;;;;;;;;;2206023;59;2454;-73
2022/05/06 01:19:59;;;;;;;;;;;;;;;;;;2207518;59;1515;-72
2022/05/06 01:22:35;;;;;;;;;;;;;;;;;;2206408;59;1774;-73
2022/05/06 01:25:08;;;;;;;;;;;;;;;;;;2206638;59;2426;-73
2022/05/06 01:27:46;;;;;;;;;;;;;;;;;;2205421;59;2416;-73
2022/05/06 01:30:25;;;;;;;;;;;;;;;;;;2205697;59;2402;-73
2022/05/06 01:32:59;;;;;;;;;;;;;;;;;;2206063;59;2388;-73
2022/05/06 01:35:33;;;;;;;;;;;;;;;;;;2207132;59;1381;-73
2022/05/06 01:38:09;;;;;;;;;;;;;;;;;;2206164;59;1953;-73
2022/05/06 01:40:48;;;;;;;;;;;;;;;;;;2205117;59;2601;-72
2022/05/06 01:43:23;;;;;;;;;;;;;;;;;;2205764;59;2475;-72
2022/05/06 01:45:58;;;;;;;;;;;;;;;;;;2206848;59;2599;-73
2022/05/06 01:48:31;;;;;;;;;;;;;;;;;;2205958;59;2409;-73
2022/05/06 01:51:05;;;;;;;;;;;;;;;;;;2206907;67;1251;-73
2022/05/06 01:53:41;;;;;;;;;;;;;;;;;;2206178;59;2334;-73
2022/05/06 01:56:14;;;;;;;;;;;;;;;;;;2207017;59;1631;-73
2022/05/06 01:58:47;;;;;;;;;;;;;;;;;;2206606;59;1694;-73
2022/05/06 02:01:21;;;;;;;;;;;;;;;;;;2207230;59;1660;-73
2022/05/06 02:06:57;;;;;;;;;;;;;;;;;;2199084;59;1293;-73
2022/05/06 02:09:33;;;;;;;;;;;;;;;;;;2200776;59;1712;-72
2022/05/06 02:12:07;;;;;;;;;;;;;;;;;;2201712;59;1653;-72
2022/05/06 02:14:40;;;;;;;;;;;;;;;;;;2206807;59;2602;-72
2022/05/06 02:17:13;;;;;;;;;;;;;;;;;;2205606;59;2465;-72
2022/05/06 02:19:47;;;;;;;;;;;;;;;;;;2206229;59;2382;-74
2022/05/06 02:22:20;;;;;;;;;;;;;;;;;;2204997;59;2382;-72
2022/05/06 02:24:56;;;;;;;;;;;;;;;;;;2204481;59;2382;-73
2022/05/06 02:27:29;;;;;;;;;;;;;;;;;;2206250;59;1268;-72
2022/05/06 02:33:23;;;;;;;;;;;;;;;;;;2200165;59;2722;-73
2022/05/06 02:35:56;;;;;;;;;;;;;;;;;;2205636;59;2311;-72
2022/05/06 02:38:30;;;;;;;;;;;;;;;;;;2206262;59;2521;-72
2022/05/06 02:41:06;;;;;;;;;;;;;;;;;;2205402;59;2371;-72
2022/05/06 02:43:40;;;;;;;;;;;;;;;;;;2205134;59;2414;-73
2022/05/06 02:46:13;;;;;;;;;;;;;;;;;;2202883;59;1972;-72
2022/05/06 02:48:46;;;;;;;;;;;;;;;;;;2206208;59;1426;-73
2022/05/06 02:51:19;;;;;;;;;;;;;;;;;;2202526;59;1853;-73
2022/05/06 02:53:52;;;;;;;;;;;;;;;;;;2204471;59;1823;-72
2022/05/06 02:56:28;;;;;;;;;;;;;;;;;;2206923;59;1394;-72
2022/05/06 02:59:01;;;;;;;;;;;;;;;;;;2206062;59;1640;-72
2022/05/06 03:01:35;;;;;;;;;;;;;;;;;;2206700;59;1293;-72
2022/05/06 03:04:11;;;;;;;;;;;;;;;;;;2206736;59;1767;-72
2022/05/06 03:06:44;;;;;;;;;;;;;;;;;;2205924;59;2003;-72
2022/05/06 03:09:18;;;;;;;;;;;;;;;;;;2206340;59;1689;-72
2022/05/06 03:11:54;;;;;;;;;;;;;;;;;;2205882;59;1571;-72
2022/05/06 03:14:27;;;;;;;;;;;;;;;;;;2206016;59;1780;-72
2022/05/06 03:17:00;;;;;;;;;;;;;;;;;;2206908;59;1722;-72
2022/05/06 03:19:33;;;;;;;;;;;;;;;;;;2206163;59;1704;-72
2022/05/06 03:22:07;;;;;;;;;;;;;;;;;;2206869;59;1517;-72
2022/05/06 03:24:41;;;;;;;;;;;;;;;;;;2206282;59;2392;-72
2022/05/06 03:30:02;;;;;;;;;;;;;;;;;;2204069;59;2753;-72
2022/05/06 03:32:35;;;;;;;;;;;;;;;;;;2206565;59;1707;-73
2022/05/06 03:35:10;;;;;;;;;;;;;;;;;;2207177;59;1288;-72
2022/05/06 03:37:44;;;;;;;;;;;;;;;;;;2205590;59;2797;-72
2022/05/06 03:40:17;;;;;;;;;;;;;;;;;;2205778;59;1639;-72
2022/05/06 03:42:53;;;;;;;;;;;;;;;;;;2205035;59;2682;-72
2022/05/06 03:45:27;;;;;;;;;;;;;;;;;;2206595;59;1954;-72
2022/05/06 03:48:00;;;;;;;;;;;;;;;;;;2205029;59;2434;-72
2022/05/06 03:53:23;;;;;;;;;;;;;;;;;;2204997;59;2671;-72
2022/05/06 03:55:56;;;;;;;;;;;;;;;;;;2205905;59;1786;-72
2022/05/06 03:58:32;;;;;;;;;;;;;;;;;;2206248;59;2456;-72
2022/05/06 04:01:07;;;;;;;;;;;;;;;;;;2206892;59;1669;-72
2022/05/06 04:03:41;;;;;;;;;;;;;;;;;;2206858;67;1233;-72
2022/05/06 04:06:15;;;;;;;;;;;;;;;;;;2207269;59;1988;-72
2022/05/06 04:08:48;;;;;;;;;;;;;;;;;;2206599;59;1623;-72
2022/05/06 04:11:21;;;;;;;;;;;;;;;;;;2207106;59;1276;-72
2022/05/06 04:13:57;;;;;;;;;;;;;;;;;;2208178;53;2008;-70
2022/05/06 04:16:30;;;;;;;;;;;;;;;;;;2204254;59;2178;-70
2022/05/06 04:19:03;;;;;;;;;;;;;;;;;;2207423;59;1203;-69
2022/05/06 04:24:25;;;;;;;;;;;;;;;;;;2207743;59;1250;-70
2022/05/06 04:26:59;;;;;;;;;;;;;;;;;;2207815;59;1930;-70
2022/05/06 04:29:35;;;;;;;;;;;;;;;;;;2207988;59;1249;-69
2022/05/06 04:32:08;;;;;;;;;;;;;;;;;;2206445;59;1172;-70
2022/05/06 04:34:41;;;;;;;;;;;;;;;;;;2207581;59;1582;-69
2022/05/06 04:37:15;;;;;;;;;;;;;;;;;;2207902;59;1224;-70
2022/05/06 04:39:48;;;;;;;;;;;;;;;;;;2207738;67;1310;-70
2022/05/06 04:42:21;;;;;;;;;;;;;;;;;;2207928;67;1141;-70
2022/05/06 04:44:57;;;;;;;;;;;;;;;;;;2207597;67;1135;-70
2022/05/06 04:47:30;;;;;;;;;;;;;;;;;;2207097;59;2460;-70
2022/05/06 04:50:03;;;;;;;;;;;;;;;;;;2206833;59;2393;-70
2022/05/06 04:52:36;;;;;;;;;;;;;;;;;;2207760;67;1402;-70
2022/05/06 04:55:10;;;;;;;;;;;;;;;;;;2207205;59;1792;-70
2022/05/06 04:57:43;;;;;;;;;;;;;;;;;;2206740;59;1773;-70
2022/05/06 05:00:19;;;;;;;;;;;;;;;;;;2207459;59;2596;-70
2022/05/06 05:02:53;;;;;;;;;;;;;;;;;;2207690;67;1271;-70
2022/05/06 05:05:27;;;;;;;;;;;;;;;;;;2206798;59;2481;-70
2022/05/06 05:08:00;;;;;;;;;;;;;;;;;;2206903;59;2449;-70
2022/05/06 05:10:33;;;;;;;;;;;;;;;;;;2205723;59;2606;-70
2022/05/06 05:13:06;;;;;;;;;;;;;;;;;;2207005;59;1748;-70
2022/05/06 05:15:42;;;;;;;;;;;;;;;;;;2206951;59;1561;-70
2022/05/06 05:18:15;;;;;;;;;;;;;;;;;;2207900;59;1303;-70
2022/05/06 05:20:49;;;;;;;;;;;;;;;;;;2205743;59;4922;-70
2022/05/06 05:23:22;;;;;;;;;;;;;;;;;;2206920;59;2424;-69
2022/05/06 05:25:55;;;;;;;;;;;;;;;;;;2206565;59;2379;-69
2022/05/06 05:28:28;;;;;;;;;;;;;;;;;;2206063;59;2392;-69
2022/05/06 05:31:04;;;;;;;;;;;;;;;;;;2206674;59;1348;-69
2022/05/06 05:33:37;;;;;;;;;;;;;;;;;;2207278;59;1510;-69
2022/05/06 05:36:10;;;;;;;;;;;;;;;;;;2207671;59;1224;-69
2022/05/06 05:38:43;;;;;;;;;;;;;;;;;;2206629;59;2818;-69
2022/05/06 05:41:16;;;;;;;;;;;;;;;;;;2207420;67;1132;-69
2022/05/06 05:49:30;;;;;;;;;;;;;;;;;;2207425;59;1514;-70
2022/05/06 05:52:03;;;;;;;;;;;;;;;;;;2205758;59;2547;-69
2022/05/06 05:54:36;;;;;;;;;;;;;;;;;;2206767;59;1721;-69
2022/05/06 05:57:09;;;;;;;;;;;;;;;;;;2205982;59;2479;-69
2022/05/06 05:59:43;;;;;;;;;;;;;;;;;;2207281;59;2059;-70
2022/05/06 06:02:19;;;;;;;;;;;;;;;;;;2205691;59;2770;-69
2022/05/06 06:04:53;;;;;;;;;;;;;;;;;;2207368;59;1430;-69
2022/05/06 06:07:26;;;;;;;;;;;;;;;;;;2206717;59;2374;-69
2022/05/06 06:09:59;;;;;;;;;;;;;;;;;;2206299;59;2311;-69
2022/05/06 06:12:32;;;;;;;;;;;;;;;;;;2207125;59;1518;-69
2022/05/06 06:15:05;;;;;;;;;;;;;;;;;;2206044;59;2580;-69
2022/05/06 06:17:41;;;;;;;;;;;;;;;;;;2207175;59;2266;-69
2022/05/06 06:20:14;;;;;;;;;;;;;;;;;;2206481;59;1812;-69
2022/05/06 06:22:47;;;;;;;;;;;;;;;;;;2207383;59;1260;-69
2022/05/06 06:25:20;;;;;;;;;;;;;;;;;;2207530;67;1129;-70
2022/05/06 06:27:53;;;;;;;;;;;;;;;;;;2207440;67;1957;-69
2022/05/06 06:30:27;;;;;;;;;;;;;;;;;;2207174;59;1118;-69
2022/05/06 06:33:03;;;;;;;;;;;;;;;;;;2207018;59;2571;-69
2022/05/06 06:35:36;;;;;;;;;;;;;;;;;;2206001;59;2919;-69
2022/05/06 06:38:09;;;;;;;;;;;;;;;;;;2207175;59;1566;-69
2022/05/06 06:40:42;;;;;;;;;;;;;;;;;;2207514;67;1150;-69
2022/05/06 06:43:16;;;;;;;;;;;;;;;;;;2207306;59;1694;-69
2022/05/06 06:45:49;;;;;;;;;;;;;;;;;;2207060;59;1177;-69
2022/05/06 06:48:25;;;;;;;;;;;;;;;;;;2206593;59;2743;-70
2022/05/06 06:50:58;;;;;;;;;;;;;;;;;;2206489;59;1542;-69
2022/05/06 06:53:31;;;;;;;;;;;;;;;;;;2206336;59;2432;-69
2022/05/06 06:56:05;;;;;;;;;;;;;;;;;;2207016;59;1449;-69
2022/05/06 06:58:38;;;;;;;;;;;;;;;;;;2207462;59;1782;-69
2022/05/06 07:01:11;;;;;;;;;;;;;;;;;;2206966;59;1749;-69
2022/05/06 07:03:47;;;;;;;;;;;;;;;;;;2206271;59;2438;-69
2022/05/06 07:11:58;;;;;;;;;;;;;;;;;;2205823;59;2791;-69
2022/05/06 07:14:33;;;;;;;;;;;;;;;;;;2205982;59;1710;-69
2022/05/06 07:17:07;;;;;;;;;;;;;;;;;;2205400;59;2660;-69
2022/05/06 07:19:43;;;;;;;;;;;;;;;;;;2206816;59;1605;-69
2022/05/06 07:22:16;;;;;;;;;;;;;;;;;;2207455;59;1791;-69
2022/05/06 07:24:49;;;;;;;;;;;;;;;;;;2207324;67;1200;-69
2022/05/06 07:27:23;;;;;;;;;;;;;;;;;;2198608;59;2480;-71
2022/05/06 07:29:57;;;;;;;;;;;;;;;;;;2204021;59;2812;-69
2022/05/06 07:32:30;;;;;;;;;;;;;;;;;;2206660;59;1283;-69
2022/05/06 07:35:07;;;;;;;;;;;;;;;;;;2205826;59;2055;-69
2022/05/06 07:37:41;;;;;;;;;;;;;;;;;;2205850;59;2643;-70
2022/05/06 07:40:15;;;;;;;;;;;;;;;;;;2203985;59;2767;-70
2022/05/06 07:42:51;;;;;;;;;;;;;;;;;;2206354;59;1631;-69
2022/05/06 07:45:25;;;;;;;;;;;;;;;;;;2207585;59;1674;-69
2022/05/06 07:47:58;;;;;;;;;;;;;;;;;;2206074;59;1998;-69
2022/05/06 07:50:34;;;;;;;;;;;;;;;;;;2205982;59;2191;-70
2022/05/06 07:53:07;;;;;;;;;;;;;;;;;;2204421;59;2604;-69
2022/05/06 07:55:40;;;;;;;;;;;;;;;;;;2203398;59;3021;-69
2022/05/06 07:58:13;;;;;;;;;;;;;;;;;;2206254;59;1642;-69
2022/05/06 08:00:46;;;;;;;;;;;;;;;;;;2206894;59;1747;-70
2022/05/06 08:06:11;;;;;;;;;;;;;;;;;;2206878;59;1784;-70
2022/05/06 08:08:45;;;;;;;;;;;;;;;;;;2200816;59;2710;-70
2022/05/06 08:11:18;;;;;;;;;;;;;;;;;;2201954;59;2088;-70
2022/05/06 08:13:52;;;;;;;;;;;;;;;;;;2200048;59;2074;-70
2022/05/06 08:16:25;;;;;;;;;;;;;;;;;;2202378;59;1981;-70
2022/05/06 08:18:58;;;;;;;;;;;;;;;;;;2206419;67;1216;-70
2022/05/06 08:21:34;;;;;;;;;;;;;;;;;;2201340;59;2322;-70
2022/05/06 08:24:08;;;;;;;;;;;;;;;;;;2203669;59;2413;-70
2022/05/06 08:26:41;;;;;;;;;;;;;;;;;;2204522;59;2460;-70
2022/05/06 08:29:14;;;;;;;;;;;;;;;;;;2203726;59;2678;-70
2022/05/06 08:31:47;;;;;;;;;;;;;;;;;;2205587;59;3184;-70
2022/05/06 08:34:20;;;;;;;;;;;;;;;;;;2202736;59;2209;-70
2022/05/06 08:36:56;;;;;;;;;;;;;;;;;;2206092;59;2461;-70
2022/05/06 08:39:29;;;;;;;;;;;;;;;;;;2204292;59;3205;-70
2022/05/06 08:42:04;;;;;;;;;;;;;;;;;;2204563;59;2373;-70
2022/05/06 08:53:08;;;;;;;;;;;;;;;;;;2207034;59;1399;-70
2022/05/06 08:55:41;;;;;;;;;;;;;;;;;;2205794;59;1826;-70
2022/05/06 08:58:14;;;;;;;;;;;;;;;;;;2207539;59;1759;-70
2022/05/06 09:00:47;;;;;;;;;;;;;;;;;;2206363;59;2236;-70
2022/05/06 09:03:20;;;;;;;;;;;;;;;;;;2205784;59;2430;-70
2022/05/06 09:05:54;;;;;;;;;;;;;;;;;;2206675;59;2236;-70
2022/05/06 09:08:40;;;;;;;;;;;;;;;;;;2207875;59;1933;-70
2022/05/06 09:11:13;;;;;;;;;;;;;;;;;;2203532;59;2490;-70
2022/05/06 09:13:55;;;;;;;;;;;;;;;;;;2202927;59;2370;-69
2022/05/06 09:19:22;;;;;;;;;;;;;;;;;;2205319;59;2287;-70
2022/05/06 09:22:06;;;;;;;;;;;;;;;;;;2203319;59;2306;-69
2022/05/06 09:24:42;;;;;;;;;;;;;;;;;;2205073;59;2711;-70
2022/05/06 09:27:16;;;;;;;;;;;;;;;;;;2203849;59;2457;-70
2022/05/06 09:29:50;;;;;;;;;;;;;;;;;;2204483;59;2548;-69
2022/05/06 09:32:24;;;;;;;;;;;;;;;;;;2204075;59;2521;-69
2022/05/06 09:34:57;;;;;;;;;;;;;;;;;;2203293;59;2439;-70
2022/05/06 09:37:31;;;;;;;;;;;;;;;;;;2206648;59;2435;-70
2022/05/06 09:40:12;;;;;;;;;;;;;;;;;;2202337;59;2559;-70
2022/05/06 09:42:46;;;;;;;;;;;;;;;;;;2205534;59;2268;-70
2022/05/06 09:45:30;;;;;;;;;;;;;;;;;;2205434;59;2432;-69
2022/05/06 09:48:04;;;;;;;;;;;;;;;;;;2204888;59;2758;-69
2022/05/06 09:50:38;;;;;;;;;;;;;;;;;;2207745;59;1326;-70
2022/05/06 09:53:12;;;;;;;;;;;;;;;;;;2202794;59;2622;-69
2022/05/06 09:55:49;;;;;;;;;;;;;;;;;;2200411;59;2619;-70
2022/05/06 09:58:22;;;;;;;;;;;;;;;;;;2204947;59;2576;-70
2022/05/06 10:00:56;;;;;;;;;;;;;;;;;;2205237;59;2627;-70
2022/05/06 10:03:29;;;;;;;;;;;;;;;;;;2206318;59;1916;-70
2022/05/06 10:06:02;;;;;;;;;;;;;;;;;;2206238;59;2718;-70
2022/05/06 10:08:36;;;;;;;;;;;;;;;;;;2206360;59;2730;-70
2022/05/06 10:11:14;;;;;;;;;;;;;;;;;;2207114;59;2717;-70
2022/05/06 10:13:49;;;;;;;;;;;;;;;;;;2208680;53;3572;-72
2022/05/06 10:16:35;;;;;;;;;;;;;;;;;;2205405;59;2662;-72
2022/05/06 10:19:26;;;;;;;;;;;;;;;;;;2205450;59;2525;-72
2022/05/06 10:21:59;;;;;;;;;;;;;;;;;;2205883;59;2588;-72
2022/05/06 10:24:39;;;;;;;;;;;;;;;;;;2205691;59;2300;-72
2022/05/06 10:32:25;;;;;;;;;;;;;;;;;;2206463;59;2488;-72
2022/05/06 10:33:23;;;;;;;;;;;;;;;;;;2204454;59;2753;-72
2022/05/06 10:35:56;;;;;;;;;;;;;;;;;;2206543;59;2494;-73
2022/05/06 10:38:29;;;;;;;;;;;;;;;;;;2206612;59;1315;-72
2022/05/06 10:41:05;;;;;;;;;;;;;;;;;;2207069;67;1152;-72
2022/05/06 10:43:59;;;;;;;;;;;;;;;;;;2206904;59;1934;-73
2022/05/06 10:46:37;;;;;;;;;;;;;;;;;;2206319;59;2317;-72
2022/05/06 10:49:29;;;;;;;;;;;;;;;;;;2207747;59;1993;-73
2022/05/06 10:52:18;;;;;;;;;;;;;;;;;;2206152;67;1160;-73
2022/05/06 10:54:53;;;;;;;;;;;;;;;;;;2205049;59;2446;-74
2022/05/06 10:57:26;;;;;;;;;;;;;;;;;;2206935;59;2764;-73
2022/05/06 11:00:06;;;;;;;;;;;;;;;;;;2207895;59;2220;-74
2022/05/06 11:02:40;;;;;;;;;;;;;;;;;;2206673;59;2681;-74
2022/05/06 11:05:14;;;;;;;;;;;;;;;;;;2204535;59;2721;-74
2022/05/06 11:07:48;;;;;;;;;;;;;;;;;;2206634;59;2463;-74
2022/05/06 11:10:23;;;;;;;;;;;;;;;;;;2205719;59;2482;-74
2022/05/06 11:12:57;;;;;;;;;;;;;;;;;;2205293;59;2440;-75
2022/05/06 11:15:35;;;;;;;;;;;;;;;;;;2207677;59;1870;-76
2022/05/06 11:18:08;;;;;;;;;;;;;;;;;;2206417;59;1180;-74
2022/05/06 11:20:42;;;;;;;;;;;;;;;;;;2207026;59;1642;-75
2022/05/06 11:23:15;;;;;;;;;;;;;;;;;;2206867;59;1383;-75
2022/05/06 11:25:50;;;;;;;;;;;;;;;;;;2206462;67;1193;-75
2022/05/06 11:28:24;;;;;;;;;;;;;;;;;;2207324;59;1928;-74
2022/05/06 11:31:00;;;;;;;;;;;;;;;;;;2206583;59;2645;-74
2022/05/06 11:33:34;;;;;;;;;;;;;;;;;;2207258;59;2517;-74
2022/05/06 11:36:08;;;;;;;;;;;;;;;;;;2205118;59;2500;-75
2022/05/06 11:38:42;;;;;;;;;;;;;;;;;;2206377;59;1407;-75
2022/05/06 11:41:16;;;;;;;;;;;;;;;;;;2206876;59;1373;-74
2022/05/06 11:43:50;;;;;;;;;;;;;;;;;;2203192;67;1604;-74
2022/05/06 11:49:24;;;;;;;;;;;;;;;;;;2206730;59;1991;-74
2022/05/06 11:51:59;;;;;;;;;;;;;;;;;;2207172;59;1143;-74
2022/05/06 11:54:32;;;;;;;;;;;;;;;;;;2206864;59;1750;-74
2022/05/06 11:57:06;;;;;;;;;;;;;;;;;;2207261;59;1179;-74
2022/05/06 11:59:39;;;;;;;;;;;;;;;;;;2206215;59;2098;-74
2022/05/06 12:02:15;;;;;;;;;;;;;;;;;;2206988;59;1179;-74
2022/05/06 12:04:48;;;;;;;;;;;;;;;;;;2206462;67;1179;-74
2022/05/06 12:07:22;;;;;;;;;;;;;;;;;;2206097;67;1146;-74
2022/05/06 12:09:58;;;;;;;;;;;;;;;;;;2206334;59;1940;-73
2022/05/06 12:12:31;;;;;;;;;;;;;;;;;;2207095;59;1261;-73
2022/05/06 12:15:14;;;;;;;;;;;;;;;;;;2206185;59;1909;-73
2022/05/06 12:17:49;;;;;;;;;;;;;;;;;;2205914;59;1819;-74
2022/05/06 12:20:41;;;;;;;;;;;;;;;;;;2206680;59;1618;-74
2022/05/06 12:23:14;;;;;;;;;;;;;;;;;;2204536;67;2130;-74
2022/05/06 12:25:55;;;;;;;;;;;;;;;;;;2206532;67;1235;-73
2022/05/06 12:28:29;;;;;;;;;;;;;;;;;;2206388;59;2001;-73
2022/05/06 12:31:02;;;;;;;;;;;;;;;;;;2206802;67;1141;-74
2022/05/06 12:33:45;;;;;;;;;;;;;;;;;;2206750;59;2412;-74
2022/05/06 12:36:21;;;;;;;;;;;;;;;;;;2203206;59;2504;-73
2022/05/06 12:38:54;;;;;;;;;;;;;;;;;;2206437;59;2687;-73
2022/05/06 12:41:28;;;;;;;;;;;;;;;;;;2207633;59;2669;-73
2022/05/06 12:44:16;;;;;;;;;;;;;;;;;;2207361;59;2697;-72
2022/05/06 12:46:49;;;;;;;;;;;;;;;;;;2206581;59;1276;-73
2022/05/06 12:49:40;;;;;;;;;;;;;;;;;;2207695;59;2346;-72
2022/05/06 12:52:13;;;;;;;;;;;;;;;;;;2204832;59;2470;-72
2022/05/06 12:54:47;;;;;;;;;;;;;;;;;;2206055;59;2294;-73
2022/05/06 12:57:20;;;;;;;;;;;;;;;;;;2207797;59;1331;-73
2022/05/06 12:59:54;;;;;;;;;;;;;;;;;;2207770;59;1768;-73
2022/05/06 13:02:27;;;;;;;;;;;;;;;;;;2208283;67;1294;-72
2022/05/06 13:05:03;;;;;;;;;;;;;;;;;;2206491;59;2731;-73
2022/05/06 13:07:36;;;;;;;;;;;;;;;;;;2206412;59;2372;-73
2022/05/06 13:10:09;;;;;;;;;;;;;;;;;;2206876;59;1975;-73
2022/05/06 13:12:45;;;;;;;;;;;;;;;;;;2207394;59;1275;-73
2022/05/06 13:15:18;;;;;;;;;;;;;;;;;;2206749;59;2895;-74
2022/05/06 13:17:51;;;;;;;;;;;;;;;;;;2206366;59;2698;-72
2022/05/06 13:20:28;;;;;;;;;;;;;;;;;;2207294;59;2428;-72
2022/05/06 13:23:01;;;;;;;;;;;;;;;;;;2206641;59;2709;-72
2022/05/06 13:25:34;;;;;;;;;;;;;;;;;;2206375;59;2749;-73
2022/05/06 13:28:08;;;;;;;;;;;;;;;;;;2205990;59;2669;-73
2022/05/06 13:30:41;;;;;;;;;;;;;;;;;;2206909;59;2503;-72
2022/05/06 13:33:14;;;;;;;;;;;;;;;;;;2207143;59;2351;-72
2022/05/06 13:35:50;;;;;;;;;;;;;;;;;;2206632;59;2569;-72
2022/05/06 13:38:23;;;;;;;;;;;;;;;;;;2205282;59;2187;-72
2022/05/06 13:40:56;;;;;;;;;;;;;;;;;;2206089;67;1168;-72
2022/05/06 13:43:29;;;;;;;;;;;;;;;;;;2206662;59;1727;-72
2022/05/06 13:46:03;;;;;;;;;;;;;;;;;;2207021;59;2645;-72
2022/05/06 13:48:36;;;;;;;;;;;;;;;;;;2207331;59;2666;-72
2022/05/06 13:51:12;;;;;;;;;;;;;;;;;;2206980;59;1187;-72
2022/05/06 13:53:45;;;;;;;;;;;;;;;;;;2207469;59;2417;-72
2022/05/06 13:59:08;;;;;;;;;;;;;;;;;;2207410;59;2470;-72
2022/05/06 14:01:41;;;;;;;;;;;;;;;;;;2204031;59;2727;-74
2022/05/06 14:04:14;;;;;;;;;;;;;;;;;;2206806;59;2728;-74
2022/05/06 14:06:50;;;;;;;;;;;;;;;;;;2206880;59;2733;-73
2022/05/06 14:09:23;;;;;;;;;;;;;;;;;;2206654;59;2384;-73
2022/05/06 14:11:56;;;;;;;;;;;;;;;;;;2207782;59;2621;-72
2022/05/06 14:14:29;;;;;;;;;;;;;;;;;;2206977;59;2590;-73
2022/05/06 14:17:02;;;;;;;;;;;;;;;;;;2206890;59;1237;-73
2022/05/06 14:19:35;;;;;;;;;;;;;;;;;;2207020;67;1173;-72
2022/05/06 14:22:11;;;;;;;;;;;;;;;;;;2206843;59;1654;-72
2022/05/06 14:24:45;;;;;;;;;;;;;;;;;;2207040;59;2681;-72
2022/05/06 14:27:19;;;;;;;;;;;;;;;;;;2210479;59;2463;-72
2022/05/06 14:29:52;;;;;;;;;;;;;;;;;;2209135;59;1912;-75
2022/05/06 14:32:27;;;;;;;;;;;;;;;;;;2209185;59;2639;-72
2022/05/06 14:35:16;;;;;;;;;;;;;;;;;;2205647;59;2762;-72
2022/05/06 14:37:53;;;;;;;;;;;;;;;;;;2205838;59;2640;-72
2022/05/06 14:40:28;;;;;;;;;;;;;;;;;;2205582;67;1228;-72
2022/05/06 14:43:01;;;;;;;;;;;;;;;;;;2206430;59;2516;-73
2022/05/06 14:45:35;;;;;;;;;;;;;;;;;;2207165;59;2500;-72
2022/05/06 14:48:09;;;;;;;;;;;;;;;;;;2207009;59;2684;-71
2022/05/06 14:50:42;;;;;;;;;;;;;;;;;;2206328;59;2818;-72
2022/05/06 14:53:18;;;;;;;;;;;;;;;;;;2206973;59;2794;-72
2022/05/06 14:55:51;;;;;;;;;;;;;;;;;;2207168;59;1647;-73
2022/05/06 14:58:24;;;;;;;;;;;;;;;;;;2206526;59;1641;-71
2022/05/06 15:00:57;;;;;;;;;;;;;;;;;;2206562;59;1151;-72
2022/05/06 15:03:30;;;;;;;;;;;;;;;;;;2203326;59;2605;-72
2022/05/06 15:06:04;;;;;;;;;;;;;;;;;;2206153;59;2465;-72
2022/05/06 15:08:41;;;;;;;;;;;;;;;;;;2204435;59;2415;-72
2022/05/06 15:11:14;;;;;;;;;;;;;;;;;;2205517;59;2630;-72
2022/05/06 15:13:47;;;;;;;;;;;;;;;;;;2205501;59;2451;-72
2022/05/06 15:16:20;;;;;;;;;;;;;;;;;;2207009;59;2520;-72
2022/05/06 15:21:42;;;;;;;;;;;;;;;;;;2206404;59;2240;-72
2022/05/06 15:24:19;;;;;;;;;;;;;;;;;;2205565;59;2469;-72
2022/05/06 15:26:52;;;;;;;;;;;;;;;;;;2206882;59;2342;-73
2022/05/06 15:29:25;;;;;;;;;;;;;;;;;;2207112;59;2002;-72
2022/05/06 15:31:59;;;;;;;;;;;;;;;;;;2206310;67;1179;-72
2022/05/06 15:34:32;;;;;;;;;;;;;;;;;;2206312;59;2563;-72
2022/05/06 15:37:05;;;;;;;;;;;;;;;;;;2205833;59;2466;-72
2022/05/06 15:39:41;;;;;;;;;;;;;;;;;;2205518;59;2280;-72
2022/05/06 15:42:14;;;;;;;;;;;;;;;;;;2206898;59;1900;-72
2022/05/06 15:44:47;;;;;;;;;;;;;;;;;;2205925;59;2389;-72
2022/05/06 15:47:20;;;;;;;;;;;;;;;;;;2206757;59;2949;-72
2022/05/06 15:49:54;;;;;;;;;;;;;;;;;;2205569;59;2734;-72
2022/05/06 15:52:27;;;;;;;;;;;;;;;;;;2206441;59;2570;-72
2022/05/06 15:55:03;;;;;;;;;;;;;;;;;;2205857;59;2544;-72
2022/05/06 15:57:36;;;;;;;;;;;;;;;;;;2206138;59;1664;-72
2022/05/06 16:00:09;;;;;;;;;;;;;;;;;;2207166;59;2394;-72
2022/05/06 16:02:43;;;;;;;;;;;;;;;;;;2205811;59;2154;-72
2022/05/06 16:05:16;;;;;;;;;;;;;;;;;;2206837;59;2343;-72
2022/05/06 16:07:49;;;;;;;;;;;;;;;;;;2206544;59;1573;-73
2022/05/06 16:10:25;;;;;;;;;;;;;;;;;;2207443;59;2627;-72
2022/05/06 16:12:59;;;;;;;;;;;;;;;;;;2205952;59;1222;-72
2022/05/06 16:15:32;;;;;;;;;;;;;;;;;;2207873;59;1554;-72
2022/05/06 16:18:05;;;;;;;;;;;;;;;;;;2207366;59;1443;-72
2022/05/06 16:20:38;;;;;;;;;;;;;;;;;;2205946;59;1533;-72
2022/05/06 16:23:11;;;;;;;;;;;;;;;;;;2205840;59;1613;-72
2022/05/06 16:25:48;;;;;;;;;;;;;;;;;;2206479;59;1828;-72
2022/05/06 16:28:21;;;;;;;;;;;;;;;;;;2206143;59;1286;-72
2022/05/06 16:30:54;;;;;;;;;;;;;;;;;;2207629;67;1993;-72
2022/05/06 16:33:28;;;;;;;;;;;;;;;;;;2208253;59;1206;-72
2022/05/06 16:38:49;;;;;;;;;;;;;;;;;;2206082;59;2805;-72
2022/05/06 16:41:28;;;;;;;;;;;;;;;;;;2205903;59;2290;-73
2022/05/06 16:44:01;;;;;;;;;;;;;;;;;;2207294;59;1995;-72
2022/05/06 16:46:34;;;;;;;;;;;;;;;;;;2207125;67;1371;-72
2022/05/06 16:49:07;;;;;;;;;;;;;;;;;;2207920;67;1273;-72
2022/05/06 16:51:40;;;;;;;;;;;;;;;;;;2206227;67;2001;-72
2022/05/06 16:54:13;;;;;;;;;;;;;;;;;;2207042;59;1530;-72
2022/05/06 16:56:49;;;;;;;;;;;;;;;;;;2206105;59;1527;-72
2022/05/06 16:59:22;;;;;;;;;;;;;;;;;;2206592;59;1765;-73
2022/05/06 17:01:56;;;;;;;;;;;;;;;;;;2206541;59;1719;-72
2022/05/06 17:04:29;;;;;;;;;;;;;;;;;;2203174;59;1698;-72
2022/05/06 17:07:02;;;;;;;;;;;;;;;;;;2208090;60;1128;-72
2022/05/06 17:09:35;;;;;;;;;;;;;;;;;;2206984;59;1931;-72
2022/05/06 17:12:12;;;;;;;;;;;;;;;;;;2206481;59;1603;-73
2022/05/06 17:14:45;;;;;;;;;;;;;;;;;;2206344;59;1605;-72
2022/05/06 17:17:18;;;;;;;;;;;;;;;;;;2207322;59;1835;-72
2022/05/06 17:19:52;;;;;;;;;;;;;;;;;;2205698;67;1090;-72
2022/05/06 17:22:25;;;;;;;;;;;;;;;;;;2207461;67;1817;-72
2022/05/06 17:24:58;;;;;;;;;;;;;;;;;;2206371;59;1690;-73
2022/05/06 17:27:34;;;;;;;;;;;;;;;;;;2206832;59;1729;-72
2022/05/06 17:30:08;;;;;;;;;;;;;;;;;;2206175;67;1994;-72
2022/05/06 17:32:42;;;;;;;;;;;;;;;;;;2207274;67;1100;-73
2022/05/06 17:35:15;;;;;;;;;;;;;;;;;;2207757;67;1242;-72
2022/05/06 17:37:48;;;;;;;;;;;;;;;;;;2207313;59;1343;-72
2022/05/06 17:40:21;;;;;;;;;;;;;;;;;;2206538;59;2582;-72
2022/05/06 17:42:57;;;;;;;;;;;;;;;;;;2206262;59;2205;-72
2022/05/06 17:45:30;;;;;;;;;;;;;;;;;;2206137;59;1892;-72
2022/05/06 17:48:03;;;;;;;;;;;;;;;;;;2207437;59;1303;-72
2022/05/06 17:50:36;;;;;;;;;;;;;;;;;;2207134;59;1923;-72
2022/05/06 17:53:10;;;;;;;;;;;;;;;;;;2207537;67;1230;-72
2022/05/06 17:55:43;;;;;;;;;;;;;;;;;;2207110;67;1274;-73
2022/05/06 17:58:19;;;;;;;;;;;;;;;;;;2206766;67;1645;-73
2022/05/06 18:03:41;;;;;;;;;;;;;;;;;;2205903;59;1661;-72
2022/05/06 18:06:15;;;;;;;;;;;;;;;;;;2206959;59;1971;-72
2022/05/06 18:08:49;;;;;;;;;;;;;;;;;;2206871;59;1617;-72
2022/05/06 18:11:23;;;;;;;;;;;;;;;;;;2204967;59;2019;-72
2022/05/06 18:13:59;;;;;;;;;;;;;;;;;;2206890;59;1245;-72
2022/05/06 18:16:34;;;;;;;;;;;;;;;;;;2206393;59;1528;-72
2022/05/06 18:19:07;;;;;;;;;;;;;;;;;;2207042;67;1103;-72
2022/05/06 18:21:41;;;;;;;;;;;;;;;;;;2206948;59;1423;-71
2022/05/06 18:24:14;;;;;;;;;;;;;;;;;;2206530;59;1775;-72
2022/05/06 18:26:47;;;;;;;;;;;;;;;;;;2205830;59;1274;-72
2022/05/06 18:29:23;;;;;;;;;;;;;;;;;;2206931;67;1171;-72
2022/05/06 18:34:45;;;;;;;;;;;;;;;;;;2206750;67;1154;-72
2022/05/06 18:37:18;;;;;;;;;;;;;;;;;;2206564;59;1256;-72
2022/05/06 18:39:51;;;;;;;;;;;;;;;;;;2206680;59;2144;-72
2022/05/06 18:42:25;;;;;;;;;;;;;;;;;;2205167;59;2304;-72
2022/05/06 18:45:00;;;;;;;;;;;;;;;;;;2206309;59;1629;-72
2022/05/06 18:47:34;;;;;;;;;;;;;;;;;;2207004;59;1236;-72
2022/05/06 18:50:07;;;;;;;;;;;;;;;;;;2205899;64;1995;-72
2022/05/06 18:52:40;;;;;;;;;;;;;;;;;;2207379;67;1116;-72